Time;durP1;ratioP1;P1;durP2;ratioP2;P2;SDS_P1;SDS_P2;PMS_P1;PMS_P2;Temp;Humidity;BMP_temperature;BMP_pressure;BME280_temperature;BME280_humidity;BME280_pressure;Samples;Min_cycle;Max_cycle;Signal;HPM_P1;HPM_P2
2021/04/04 00:01:19;;;;;;;26.88;7.47;;;4.90;71.30;;;;;;5113899;28;20054;-36
2021/04/04 00:03:45;;;;;;;17.90;5.65;;;4.90;71.40;;;;;;5114650;28;20027;-36
2021/04/04 00:06:11;;;;;;;21.92;5.88;;;5.00;71.10;;;;;;5112564;28;20111;-36
2021/04/04 00:08:37;;;;;;;27.90;5.70;;;5.10;70.20;;;;;;5112414;28;20027;-36
2021/04/04 00:11:04;;;;;;;20.25;5.05;;;5.20;69.60;;;;;;5113947;28;20085;-36
2021/04/04 00:13:30;;;;;;;18.27;6.93;;;5.10;70.30;;;;;;5114649;28;20028;-36
2021/04/04 00:15:55;;;;;;;12.73;5.20;;;5.10;70.60;;;;;;5113741;28;20047;-35
2021/04/04 00:18:21;;;;;;;19.33;5.50;;;5.10;70.20;;;;;;5113700;28;20057;-35
2021/04/04 00:20:47;;;;;;;21.40;5.97;;;5.40;69.10;;;;;;5113779;28;20498;-36
2021/04/04 00:23:12;;;;;;;31.52;7.70;;;5.40;68.80;;;;;;5113686;28;20095;-36
2021/04/04 00:25:38;;;;;;;34.75;7.22;;;5.60;68.10;;;;;;5113967;28;20405;-35
2021/04/04 00:28:04;;;;;;;23.10;8.52;;;5.70;67.80;;;;;;5115906;28;20464;-35
2021/04/04 00:30:30;;;;;;;22.33;8.85;;;5.80;67.10;;;;;;5118221;28;20027;-35
2021/04/04 00:32:56;;;;;;;20.10;6.20;;;5.80;66.90;;;;;;5118160;28;20429;-36
2021/04/04 00:35:22;;;;;;;34.47;9.18;;;5.70;67.10;;;;;;5118072;28;20107;-35
2021/04/04 00:37:52;;;;;;;21.45;6.63;;;5.60;67.20;;;;;;5117710;28;20023;-35
2021/04/04 00:40:21;;;;;;;23.90;7.30;;;5.60;67.30;;;;;;5117672;28;20020;-36
2021/04/04 00:42:47;;;;;;;24.48;5.80;;;5.70;67.00;;;;;;5117672;28;20759;-35
2021/04/04 00:45:20;;;;;;;25.02;6.68;;;5.80;66.60;;;;;;5117620;28;20020;-35
2021/04/04 00:47:46;;;;;;;14.27;5.30;;;5.60;67.00;;;;;;5117541;28;20091;-36
2021/04/04 00:50:13;;;;;;;20.27;5.53;;;5.50;67.60;;;;;;5117560;28;20035;-36
2021/04/04 00:52:40;;;;;;;18.90;5.18;;;5.50;67.60;;;;;;5117874;28;20035;-36
2021/04/04 00:55:07;;;;;;;20.95;5.50;;;5.50;67.80;;;;;;5117425;28;20043;-36
2021/04/04 00:57:34;;;;;;;20.65;5.70;;;5.50;67.50;;;;;;5117359;28;20178;-36
2021/04/04 01:00:00;;;;;;;23.63;5.63;;;5.50;67.20;;;;;;5117102;28;20019;-36
2021/04/04 01:02:26;;;;;;;22.13;6.60;;;5.70;66.80;;;;;;5117301;28;20412;-35
2021/04/04 01:04:54;;;;;;;22.50;6.03;;;5.70;67.40;;;;;;5117269;28;20111;-36
2021/04/04 01:07:19;;;;;;;22.70;5.60;;;5.30;69.00;;;;;;5116864;28;20031;-35
2021/04/04 01:09:45;;;;;;;20.55;6.30;;;5.40;68.00;;;;;;5116991;28;20031;-36
2021/04/04 01:12:27;;;;;;;19.48;5.22;;;5.40;68.20;;;;;;5116740;27;20024;-35
2021/04/04 01:15:01;;;;;;;22.35;5.60;;;5.30;68.90;;;;;;5116706;28;20097;-36
2021/04/04 01:17:29;;;;;;;25.73;8.73;;;5.50;68.00;;;;;;5117015;28;20026;-35
2021/04/04 01:20:03;;;;;;;14.35;5.45;;;5.60;67.30;;;;;;5117379;28;20480;-36
2021/04/04 01:22:41;;;;;;;20.67;5.00;;;5.60;67.00;;;;;;5116557;28;20023;-36
2021/04/04 01:25:11;;;;;;;16.40;6.05;;;5.60;66.50;;;;;;5116665;28;20031;-36
2021/04/04 01:27:52;;;;;;;22.92;7.78;;;5.70;66.20;;;;;;5116522;28;20020;-36
2021/04/04 01:30:19;;;;;;;21.38;6.03;;;5.80;65.90;;;;;;5116894;28;20503;-36
2021/04/04 01:32:48;;;;;;;28.73;6.10;;;5.60;66.50;;;;;;5116940;28;20461;-35
2021/04/04 01:35:17;;;;;;;28.55;6.13;;;5.70;66.20;;;;;;5116672;28;20020;-35
2021/04/04 01:37:44;;;;;;;21.67;5.38;;;5.50;67.10;;;;;;5116689;28;20024;-35
2021/04/04 01:40:14;;;;;;;18.30;6.22;;;5.50;67.40;;;;;;5114018;28;20024;-35
2021/04/04 01:42:42;;;;;;;16.98;4.85;;;5.60;67.10;;;;;;5116066;28;20031;-36
2021/04/04 01:45:09;;;;;;;27.15;5.97;;;5.50;67.50;;;;;;5116631;28;20042;-35
2021/04/04 01:47:37;;;;;;;16.75;5.82;;;5.50;67.20;;;;;;5115182;28;20027;-36
2021/04/04 01:50:05;;;;;;;21.58;5.97;;;5.50;67.30;;;;;;5116721;28;20122;-36
2021/04/04 01:52:31;;;;;;;25.45;6.35;;;5.50;67.70;;;;;;5116283;28;20044;-35
2021/04/04 01:54:58;;;;;;;23.08;7.72;;;5.70;66.80;;;;;;5116512;28;20464;-36
2021/04/04 01:57:27;;;;;;;20.75;5.57;;;5.70;66.60;;;;;;5116238;28;20050;-35
2021/04/04 01:59:53;;;;;;;25.98;9.00;;;5.70;66.40;;;;;;5116557;28;20019;-36
2021/04/04 02:02:19;;;;;;;26.02;5.32;;;5.70;66.90;;;;;;5116900;28;20484;-36
2021/04/04 02:04:45;;;;;;;24.95;6.22;;;5.80;66.20;;;;;;5116203;28;20047;-36
2021/04/04 02:07:14;;;;;;;18.92;6.18;;;5.70;66.20;;;;;;5116397;28;20387;-36
2021/04/04 02:09:41;;;;;;;18.67;5.53;;;5.70;66.40;;;;;;5116604;28;20459;-36
2021/04/04 02:12:08;;;;;;;37.65;6.95;;;5.80;66.40;;;;;;5116282;28;20034;-36
2021/04/04 02:14:35;;;;;;;13.18;5.20;;;5.70;66.20;;;;;;5116050;28;20027;-36
2021/04/04 02:17:01;;;;;;;18.02;4.95;;;5.80;66.10;;;;;;5116234;28;20468;-36
2021/04/04 02:19:28;;;;;;;14.48;5.32;;;5.70;66.30;;;;;;5116212;28;20020;-36
2021/04/04 02:21:57;;;;;;;21.58;5.30;;;5.60;66.40;;;;;;5116059;28;20028;-36
2021/04/04 02:24:26;;;;;;;20.85;4.75;;;5.80;66.20;;;;;;5115780;27;20031;-36
2021/04/04 02:26:53;;;;;;;11.60;5.47;;;5.80;65.80;;;;;;5114359;28;20492;-36
2021/04/04 02:29:19;;;;;;;19.48;6.22;;;5.50;66.50;;;;;;5115783;28;20020;-36
2021/04/04 02:31:58;;;;;;;17.35;6.32;;;5.50;66.90;;;;;;5115955;28;20023;-35
2021/04/04 02:34:32;;;;;;;22.65;5.40;;;5.60;66.70;;;;;;5115907;28;20039;-35
2021/04/04 02:36:58;;;;;;;15.23;5.80;;;5.80;65.00;;;;;;5115553;28;20072;-36
2021/04/04 02:39:34;;;;;;;14.10;5.45;;;5.80;65.60;;;;;;5115610;28;20032;-36
2021/04/04 02:42:02;;;;;;;17.08;4.53;;;5.70;66.00;;;;;;5115735;28;20024;-36
2021/04/04 02:44:29;;;;;;;25.27;5.60;;;5.80;65.50;;;;;;5114949;28;20028;-36
2021/04/04 02:46:58;;;;;;;16.27;5.30;;;5.70;65.60;;;;;;5115590;28;20119;-36
2021/04/04 02:49:33;;;;;;;24.80;5.28;;;5.70;65.60;;;;;;5115197;28;20054;-35
2021/04/04 02:52:03;;;;;;;25.23;6.90;;;5.80;65.50;;;;;;5115182;28;20368;-36
2021/04/04 02:54:31;;;;;;;17.25;5.15;;;5.80;65.40;;;;;;5115354;28;20146;-36
2021/04/04 02:56:58;;;;;;;16.58;5.20;;;5.80;64.90;;;;;;5115259;28;20023;-36
2021/04/04 02:59:27;;;;;;;17.65;5.90;;;5.80;65.50;;;;;;5113834;28;20059;-36
2021/04/04 03:01:54;;;;;;;15.95;4.82;;;5.90;64.60;;;;;;5114987;28;20016;-35
2021/04/04 03:04:22;;;;;;;18.90;4.25;;;5.90;64.80;;;;;;5115141;28;20065;-36
2021/04/04 03:06:50;;;;;;;25.17;6.13;;;5.80;64.50;;;;;;5115376;27;20106;-36
2021/04/04 03:09:18;;;;;;;22.75;7.40;;;5.80;64.80;;;;;;5115168;28;20129;-36
2021/04/04 03:11:46;;;;;;;14.20;4.50;;;5.90;64.50;;;;;;5114977;28;20110;-37
2021/04/04 03:14:13;;;;;;;32.05;6.55;;;6.00;63.80;;;;;;5114852;28;20116;-36
2021/04/04 03:16:39;;;;;;;13.82;4.47;;;5.80;64.20;;;;;;5115035;28;20027;-35
2021/04/04 03:19:05;;;;;;;20.73;3.92;;;5.80;64.80;;;;;;5113382;28;20035;-36
2021/04/04 03:21:33;;;;;;;19.08;5.10;;;5.80;65.10;;;;;;5115369;28;20035;-36
2021/04/04 03:23:59;;;;;;;20.50;4.55;;;5.70;65.80;;;;;;5114727;28;20016;-36
2021/04/04 03:26:27;;;;;;;20.92;4.95;;;5.80;64.50;;;;;;5114468;28;20028;-36
2021/04/04 03:28:53;;;;;;;18.60;4.80;;;5.90;63.90;;;;;;5114430;28;20031;-36
2021/04/04 03:31:19;;;;;;;16.85;4.72;;;5.90;64.10;;;;;;5114433;28;20035;-35
2021/04/04 03:33:45;;;;;;;21.73;7.60;;;5.80;64.00;;;;;;5114838;28;20053;-35
2021/04/04 03:36:17;;;;;;;17.27;4.07;;;6.00;63.70;;;;;;5114252;28;20028;-36
2021/04/04 03:38:45;;;;;;;14.48;3.97;;;6.20;63.00;;;;;;5114503;28;20521;-35
2021/04/04 03:41:12;;;;;;;25.30;6.00;;;6.10;63.20;;;;;;5114790;28;20054;-39
2021/04/04 03:43:39;;;;;;;16.45;3.85;;;5.90;64.00;;;;;;5114538;28;20490;-36
2021/04/04 03:46:06;;;;;;;22.35;5.45;;;5.90;63.90;;;;;;5114248;28;20036;-36
2021/04/04 03:48:34;;;;;;;17.38;4.13;;;5.80;64.40;;;;;;5112699;28;20514;-36
2021/04/04 03:51:03;;;;;;;26.13;4.38;;;5.80;64.50;;;;;;5114157;28;20417;-35
2021/04/04 03:53:30;;;;;;;16.85;3.90;;;5.80;64.70;;;;;;5114323;28;20030;-36
2021/04/04 03:56:03;;;;;;;26.13;5.95;;;6.00;63.40;;;;;;5114008;28;20389;-36
2021/04/04 03:58:39;;;;;;;30.98;8.00;;;5.80;63.80;;;;;;5114229;28;20058;-35
2021/04/04 04:01:07;;;;;;;20.73;5.68;;;5.90;63.60;;;;;;5097117;28;20028;-35
2021/04/04 04:03:34;;;;;;;24.60;5.50;;;5.80;64.00;;;;;;5113135;28;20374;-36
2021/04/04 04:06:01;;;;;;;21.77;4.30;;;5.90;63.90;;;;;;5113945;28;20494;-36
2021/04/04 04:08:27;;;;;;;18.48;4.32;;;5.80;64.20;;;;;;5112437;28;20027;-36
2021/04/04 04:10:54;;;;;;;24.13;4.95;;;5.80;64.10;;;;;;5113785;28;20054;-36
2021/04/04 04:13:21;;;;;;;12.00;4.05;;;5.80;63.80;;;;;;5113986;28;20088;-37
2021/04/04 04:15:53;;;;;;;13.75;4.07;;;5.90;63.90;;;;;;5112402;28;20028;-36
2021/04/04 04:18:19;;;;;;;19.30;5.45;;;5.80;64.20;;;;;;5113749;28;20024;-36
2021/04/04 04:20:47;;;;;;;21.08;3.47;;;5.80;64.80;;;;;;5112330;28;20016;-35
2021/04/04 04:23:14;;;;;;;22.05;4.68;;;5.80;64.10;;;;;;5113740;28;20421;-41
2021/04/04 04:25:41;;;;;;;16.42;5.63;;;5.80;63.80;;;;;;5095548;28;20023;-36
2021/04/04 04:28:09;;;;;;;22.20;6.15;;;5.70;64.50;;;;;;5113568;28;20081;-36
2021/04/04 04:30:35;;;;;;;12.48;3.92;;;5.70;65.30;;;;;;5113597;28;20034;-37
2021/04/04 04:33:09;;;;;;;16.98;4.13;;;5.80;64.70;;;;;;5113875;28;20024;-36
2021/04/04 04:35:35;;;;;;;10.52;3.75;;;5.70;65.10;;;;;;5113510;28;20016;-36
2021/04/04 04:38:03;;;;;;;11.60;3.03;;;5.90;64.20;;;;;;5113540;28;20459;-36
2021/04/04 04:40:29;;;;;;;28.13;5.72;;;5.80;64.10;;;;;;5112980;28;20024;-36
2021/04/04 04:42:57;;;;;;;16.67;4.22;;;5.90;64.20;;;;;;5113746;28;20080;-36
2021/04/04 04:45:35;;;;;;;16.27;4.20;;;5.80;64.30;;;;;;5113394;28;20106;-36
2021/04/04 04:48:01;;;;;;;15.80;3.92;;;5.80;64.60;;;;;;5111942;28;20052;-36
2021/04/04 04:50:28;;;;;;;18.58;4.22;;;5.60;64.70;;;;;;5113716;28;20081;-36
2021/04/04 04:52:55;;;;;;;22.75;6.18;;;5.60;65.40;;;;;;5113362;28;20088;-36
2021/04/04 04:55:23;;;;;;;15.27;4.70;;;5.60;65.30;;;;;;5111983;28;20043;-36
2021/04/04 04:57:49;;;;;;;13.02;3.28;;;5.70;65.20;;;;;;5113268;28;20023;-36
2021/04/04 05:00:16;;;;;;;17.85;3.10;;;5.80;64.60;;;;;;5113242;28;20047;-36
2021/04/04 05:02:42;;;;;;;12.27;3.47;;;5.80;64.20;;;;;;5113691;28;20027;-36
2021/04/04 05:05:10;;;;;;;16.10;3.47;;;6.20;63.20;;;;;;5113134;28;20024;-36
2021/04/04 05:07:41;;;;;;;13.05;4.43;;;5.80;64.70;;;;;;5113343;28;20080;-36
2021/04/04 05:10:08;;;;;;;15.70;4.50;;;5.80;64.70;;;;;;5113523;28;20467;-36
2021/04/04 05:12:50;;;;;;;11.82;3.88;;;5.70;65.10;;;;;;5113173;28;20027;-36
2021/04/04 05:15:23;;;;;;;18.70;3.50;;;5.80;64.60;;;;;;5116848;28;20156;-36
2021/04/04 05:17:48;;;;;;;14.55;5.57;;;6.00;63.60;;;;;;5117303;28;20065;-36
2021/04/04 05:20:17;;;;;;;18.23;3.53;;;6.10;62.80;;;;;;5117192;28;20019;-36
2021/04/04 05:22:43;;;;;;;14.38;3.85;;;5.80;64.00;;;;;;5117005;28;20054;-36
2021/04/04 05:25:09;;;;;;;17.45;3.75;;;5.80;64.50;;;;;;5117109;28;20055;-36
2021/04/04 05:27:35;;;;;;;15.32;5.78;;;6.00;63.50;;;;;;5116803;28;20034;-36
2021/04/04 05:30:04;;;;;;;13.07;2.95;;;6.00;63.60;;;;;;5117092;28;20035;-35
2021/04/04 05:32:30;;;;;;;15.65;3.45;;;6.10;63.50;;;;;;5116661;28;20023;-36
2021/04/04 05:34:56;;;;;;;10.43;2.92;;;6.30;62.10;;;;;;5116452;28;20033;-34
2021/04/04 05:37:22;;;;;;;20.73;3.47;;;6.10;62.80;;;;;;5116602;28;20076;-34
2021/04/04 05:39:47;;;;;;;13.07;2.67;;;6.10;62.80;;;;;;5115267;28;20130;-34
2021/04/04 05:42:14;;;;;;;18.40;3.90;;;6.10;62.90;;;;;;5116747;28;20027;-36
2021/04/04 05:44:57;;;;;;;11.10;3.97;;;6.10;63.00;;;;;;5116398;28;20490;-35
2021/04/04 05:47:28;;;;;;;17.65;3.92;;;6.20;62.90;;;;;;5116534;28;20024;-36
2021/04/04 05:50:04;;;;;;;14.27;3.17;;;6.10;63.30;;;;;;5116186;28;20077;-36
2021/04/04 05:52:44;;;;;;;16.67;3.40;;;6.00;64.10;;;;;;5116540;28;20111;-35
2021/04/04 05:55:38;;;;;;;18.33;2.90;;;6.10;63.50;;;;;;5116292;27;20028;-37
2021/04/04 05:58:10;;;;;;;14.07;3.72;;;5.80;64.50;;;;;;5108801;28;20066;-35
2021/04/04 06:00:41;;;;;;;16.05;5.00;;;6.00;64.40;;;;;;5114886;28;20028;-35
2021/04/04 06:03:22;;;;;;;20.17;4.75;;;6.20;62.70;;;;;;5116490;27;20016;-35
2021/04/04 06:06:18;;;;;;;10.30;3.40;;;6.10;62.80;;;;;;5116202;28;20365;-35
2021/04/04 06:09:13;;;;;;;9.75;3.83;;;6.20;62.30;;;;;;5116292;28;20027;-35
2021/04/04 06:11:57;;;;;;;14.75;3.78;;;6.10;63.80;;;;;;5078445;28;20044;-36
2021/04/04 06:14:33;;;;;;;18.60;3.13;;;6.10;63.90;;;;;;5115985;27;20065;-35
2021/04/04 06:17:16;;;;;;;19.60;3.10;;;6.10;64.60;;;;;;5114610;28;20514;-35
2021/04/04 06:20:05;;;;;;;16.73;5.47;;;5.90;65.30;;;;;;5116177;28;20399;-35
2021/04/04 06:22:46;;;;;;;10.70;3.13;;;6.00;65.10;;;;;;5115801;28;20572;-35
2021/04/04 06:25:37;;;;;;;9.25;3.28;;;5.90;65.50;;;;;;5114999;28;20028;-35
2021/04/04 06:28:45;;;;;;;14.68;3.55;;;6.20;64.70;;;;;;5115560;28;20039;-35
2021/04/04 06:31:48;;;;;;;12.68;3.88;;;6.00;65.80;;;;;;5056375;28;20038;-35
2021/04/04 06:34:21;;;;;;;18.58;4.15;;;6.10;65.90;;;;;;5096932;27;20083;-35
2021/04/04 06:37:21;;;;;;;18.60;5.13;;;5.90;66.60;;;;;;5115695;28;20035;-35
2021/04/04 06:39:56;;;;;;;22.88;6.78;;;6.00;66.50;;;;;;5115740;28;20027;-35
2021/04/04 06:42:33;;;;;;;9.93;3.45;;;6.10;66.40;;;;;;5115278;28;20034;-36
2021/04/04 06:45:29;;;;;;;15.43;4.70;;;5.90;67.30;;;;;;5115567;28;20142;-35
2021/04/04 06:48:33;;;;;;;18.55;4.15;;;5.80;68.20;;;;;;5115475;28;20032;-35
2021/04/04 06:51:09;;;;;;;27.15;6.47;;;6.10;66.90;;;;;;5115105;28;20055;-35
2021/04/04 06:53:54;;;;;;;12.90;3.83;;;6.20;66.70;;;;;;5115767;28;20406;-35
2021/04/04 06:56:33;;;;;;;17.40;3.83;;;6.00;67.50;;;;;;5115036;28;20077;-36
2021/04/04 06:59:42;;;;;;;15.57;4.40;;;6.00;67.70;;;;;;5114220;28;20323;-36
2021/04/04 07:02:09;;;;;;;13.88;3.50;;;6.10;68.00;;;;;;5115021;28;20027;-35
2021/04/04 07:04:41;;;;;;;14.35;4.70;;;6.20;67.30;;;;;;5114902;28;20079;-35
2021/04/04 07:07:42;;;;;;;16.77;3.83;;;5.90;68.20;;;;;;5114763;28;20020;-36
2021/04/04 07:10:20;;;;;;;17.85;4.22;;;6.00;67.70;;;;;;5072218;28;20115;-35
2021/04/04 07:13:18;;;;;;;9.13;3.95;;;6.10;67.50;;;;;;5109522;28;20039;-35
2021/04/04 07:16:25;;;;;;;16.48;4.90;;;6.00;67.30;;;;;;5114689;28;20024;-37
2021/04/04 07:19:16;;;;;;;19.60;4.15;;;6.00;67.10;;;;;;5113575;28;20391;-35
2021/04/04 07:21:52;;;;;;;22.60;4.97;;;6.10;66.70;;;;;;5115561;28;20024;-36
2021/04/04 07:24:30;;;;;;;11.82;2.70;;;6.20;66.30;;;;;;5114474;28;20190;-36
2021/04/04 07:27:01;;;;;;;16.48;3.00;;;6.30;66.00;;;;;;5115020;28;20026;-36
2021/04/04 07:29:57;;;;;;;8.38;3.53;;;5.90;67.00;;;;;;5114491;28;20019;-35
2021/04/04 07:32:33;;;;;;;13.73;3.00;;;6.10;66.90;;;;;;5114711;28;20375;-35
2021/04/04 07:35:23;;;;;;;14.27;3.47;;;6.00;67.40;;;;;;5114662;27;20062;-35
2021/04/04 07:37:53;;;;;;;9.18;2.28;;;6.30;66.60;;;;;;5114472;28;20050;-36
2021/04/04 07:40:51;;;;;;;9.07;2.38;;;6.60;65.50;;;;;;5114757;28;20111;-35
2021/04/04 07:43:42;;;;;;;9.90;3.05;;;6.70;65.40;;;;;;5110901;28;20428;-35
2021/04/04 07:46:18;;;;;;;;;;;6.60;65.70;;;;;;5114962;28;20023;-35
2021/04/04 07:49:02;;;;;;;14.60;2.70;;;6.60;65.80;;;;;;5113982;28;19916;-36
2021/04/04 07:51:33;;;;;;;11.80;2.85;;;6.60;65.30;;;;;;5114797;28;20028;-37
2021/04/04 07:54:07;;;;;;;8.93;2.13;;;6.40;65.90;;;;;;5114373;28;20026;-37
2021/04/04 07:56:45;;;;;;;7.88;2.13;;;6.30;66.90;;;;;;5114287;28;20475;-37
2021/04/04 07:59:47;;;;;;;5.85;2.92;;;6.50;66.60;;;;;;5112676;28;20016;-36
2021/04/04 08:02:44;;;;;;;14.48;2.95;;;6.50;66.40;;;;;;5111830;28;20032;-35
2021/04/04 08:05:13;;;;;;;5.80;3.08;;;6.00;68.40;;;;;;5112639;28;20527;-35
2021/04/04 08:08:02;;;;;;;8.07;2.50;;;6.30;67.00;;;;;;5113917;28;20024;-36
2021/04/04 08:10:34;;;;;;;9.10;2.92;;;6.80;65.90;;;;;;5113969;28;20027;-35
2021/04/04 08:13:37;;;;;;;8.75;3.40;;;6.80;65.10;;;;;;5113692;28;20387;-36
2021/04/04 08:16:19;;;;;;;12.50;2.78;;;6.80;65.40;;;;;;5112619;28;20028;-37
2021/04/04 08:18:46;;;;;;;9.43;2.92;;;6.50;66.30;;;;;;5113894;28;20365;-35
2021/04/04 08:21:34;;;;;;;8.45;2.58;;;6.70;66.10;;;;;;5113566;28;20411;-35
2021/04/04 08:24:11;;;;;;;13.07;3.13;;;6.90;65.40;;;;;;5113442;28;20026;-35
2021/04/04 08:26:50;;;;;;;9.50;2.70;;;7.00;65.60;;;;;;5113677;28;20467;-35
2021/04/04 08:29:23;;;;;;;4.83;2.27;;;7.10;65.00;;;;;;5113816;28;20051;-36
2021/04/04 08:32:11;;;;;;;9.98;3.15;;;6.80;65.90;;;;;;5113973;28;20023;-36
2021/04/04 08:34:41;;;;;;;8.77;3.22;;;6.30;67.90;;;;;;5113761;28;20024;-36
2021/04/04 08:37:17;;;;;;;7.90;2.80;;;6.30;68.50;;;;;;5113864;28;20068;-37
2021/04/04 08:39:53;;;;;;;7.32;3.03;;;6.80;66.90;;;;;;5113696;28;20020;-35
2021/04/04 08:42:19;;;;;;;16.75;3.25;;;6.70;66.70;;;;;;5113292;28;20033;-35
2021/04/04 08:45:04;;;;;;;9.10;2.60;;;7.00;65.60;;;;;;5113380;28;20106;-35
2021/04/04 08:47:32;;;;;;;7.22;3.17;;;6.90;65.80;;;;;;5113237;28;20024;-35
2021/04/04 08:50:05;;;;;;;10.10;2.85;;;6.90;65.40;;;;;;5116605;28;20077;-35
2021/04/04 08:52:34;;;;;;;9.75;3.00;;;6.50;67.30;;;;;;5117187;28;20027;-36
2021/04/04 08:55:00;;;;;;;4.68;2.30;;;6.50;67.30;;;;;;5116090;28;20208;-35
2021/04/04 08:57:32;;;;;;;7.28;3.15;;;6.60;67.10;;;;;;5117269;28;20320;-35
2021/04/04 09:00:03;;;;;;;5.63;1.98;;;6.70;67.30;;;;;;5117446;28;20039;-35
2021/04/04 09:02:32;;;;;;;8.82;2.65;;;6.30;68.50;;;;;;5117900;28;20026;-37
2021/04/04 09:05:04;;;;;;;8.55;2.58;;;6.40;69.00;;;;;;5117094;28;20103;-36
2021/04/04 09:07:34;;;;;;;12.38;3.38;;;6.50;68.70;;;;;;5117410;28;20024;-36
2021/04/04 09:10:02;;;;;;;11.68;2.83;;;6.80;68.50;;;;;;5117409;28;20027;-36
2021/04/04 09:12:32;;;;;;;13.15;4.05;;;6.50;68.90;;;;;;5117160;28;20031;-36
2021/04/04 09:15:02;;;;;;;;;;;6.40;69.20;;;;;;5115843;28;20360;-41
2021/04/04 09:17:28;;;;;;;10.98;3.70;;;6.40;69.40;;;;;;5117088;28;20357;-36
2021/04/04 09:19:59;;;;;;;5.70;2.50;;;6.40;70.00;;;;;;5117157;28;20018;-36
2021/04/04 09:22:25;;;;;;;6.05;2.65;;;6.60;69.00;;;;;;5116953;28;20329;-37
2021/04/04 09:25:00;;;;;;;8.30;2.20;;;6.70;69.00;;;;;;5116655;28;20034;-35
2021/04/04 09:27:28;;;;;;;5.47;1.90;;;6.80;68.60;;;;;;5116634;28;20114;-35
2021/04/04 09:29:58;;;;;;;11.40;3.53;;;7.00;68.30;;;;;;5116635;28;20023;-35
2021/04/04 09:32:45;;;;;;;6.28;3.00;;;6.80;68.10;;;;;;5116287;28;20024;-35
2021/04/04 09:35:15;;;;;;;13.02;2.00;;;6.90;68.10;;;;;;5116632;28;20028;-35
2021/04/04 09:37:43;;;;;;;8.95;2.38;;;6.80;67.50;;;;;;5116658;28;20107;-36
2021/04/04 09:40:09;;;;;;;5.07;2.10;;;6.90;67.00;;;;;;5116496;28;20020;-36
2021/04/04 09:42:36;;;;;;;4.55;1.88;;;7.10;65.90;;;;;;5116685;28;20475;-35
2021/04/04 09:45:22;;;;;;;4.97;1.75;;;7.10;65.50;;;;;;5116560;28;20141;-36
2021/04/04 09:47:50;;;;;;;2.45;1.83;;;7.30;64.80;;;;;;5116482;28;20400;-36
2021/04/04 09:50:24;;;;;;;5.15;1.83;;;7.20;65.20;;;;;;5116671;28;20441;-36
2021/04/04 09:52:52;;;;;;;5.78;1.77;;;7.20;65.60;;;;;;5116150;28;20031;-37
2021/04/04 09:55:22;;;;;;;11.27;2.25;;;7.20;65.40;;;;;;5116579;28;20110;-37
2021/04/04 09:58:03;;;;;;;6.97;2.40;;;7.20;65.70;;;;;;5116311;28;20035;-40
2021/04/04 10:00:34;;;;;;;2.55;1.75;;;7.60;63.60;;;;;;5115251;28;20371;-37
2021/04/04 10:03:09;;;;;;;4.43;1.92;;;7.60;63.00;;;;;;5116384;28;20119;-36
2021/04/04 10:05:40;;;;;;;10.93;2.30;;;7.80;62.60;;;;;;5116377;28;20051;-36
2021/04/04 10:08:11;;;;;;;4.88;1.70;;;8.00;62.00;;;;;;5116222;28;20027;-36
2021/04/04 10:10:38;;;;;;;7.20;2.05;;;7.70;62.20;;;;;;5115872;28;20020;-36
2021/04/04 10:13:04;;;;;;;9.55;1.80;;;7.80;61.80;;;;;;5116062;28;20320;-36
2021/04/04 10:15:39;;;;;;;3.15;1.98;;;7.60;63.00;;;;;;5115578;28;20032;-36
2021/04/04 10:18:05;;;;;;;6.20;1.98;;;7.90;61.70;;;;;;5115789;28;20019;-36
2021/04/04 10:20:34;;;;;;;7.57;2.17;;;7.80;61.40;;;;;;5115658;28;20032;-35
2021/04/04 10:22:59;;;;;;;4.60;1.90;;;7.80;61.80;;;;;;5114519;28;20016;-37
2021/04/04 10:25:25;;;;;;;6.28;2.50;;;7.80;62.20;;;;;;5115653;28;20032;-36
2021/04/04 10:28:03;;;;;;;3.15;2.50;;;7.50;63.50;;;;;;5115508;28;20548;-36
2021/04/04 10:30:30;;;;;;;8.05;2.10;;;7.40;64.10;;;;;;5114490;28;20020;-36
2021/04/04 10:33:15;;;;;;;5.32;2.80;;;7.20;65.00;;;;;;5115612;28;20371;-35
2021/04/04 10:35:42;;;;;;;8.18;3.45;;;6.80;66.80;;;;;;5115660;28;20020;-36
2021/04/04 10:38:15;;;;;;;6.72;3.53;;;7.10;66.50;;;;;;5115397;28;20206;-35
2021/04/04 10:40:53;;;;;;;11.27;3.10;;;7.00;66.40;;;;;;5114014;28;20475;-35
2021/04/04 10:43:33;;;;;;;7.90;2.30;;;7.40;65.30;;;;;;5114626;28;20363;-36
2021/04/04 10:46:06;;;;;;;4.85;1.83;;;7.00;66.30;;;;;;5097243;28;20081;-37
2021/04/04 10:48:37;;;;;;;3.22;2.30;;;6.70;67.30;;;;;;5114947;28;20138;-35
2021/04/04 10:51:04;;;;;;;14.50;4.07;;;6.80;66.70;;;;;;5115255;28;20494;-36
2021/04/04 10:53:30;;;;;;;4.38;2.67;;;6.80;67.10;;;;;;5115427;28;20032;-35
2021/04/04 10:55:56;;;;;;;4.35;2.70;;;6.90;66.10;;;;;;5115010;28;20031;-36
2021/04/04 10:58:27;;;;;;;5.80;3.13;;;7.30;65.40;;;;;;5114778;27;20072;-36
2021/04/04 11:00:55;;;;;;;7.20;2.58;;;7.30;64.90;;;;;;5115004;28;20091;-36
2021/04/04 11:03:21;;;;;;;6.63;2.65;;;7.30;64.40;;;;;;5113521;28;20422;-36
2021/04/04 11:05:48;;;;;;;3.88;1.85;;;7.50;63.50;;;;;;5115041;28;20061;-37
2021/04/04 11:08:15;;;;;;;4.80;2.22;;;7.60;63.10;;;;;;5113442;28;20114;-38
2021/04/04 11:10:42;;;;;;;5.05;2.80;;;7.50;64.30;;;;;;5114696;28;20031;-36
2021/04/04 11:13:08;;;;;;;9.30;2.65;;;7.50;64.00;;;;;;5114288;28;20035;-37
2021/04/04 11:15:37;;;;;;;8.32;3.00;;;7.30;64.60;;;;;;5114540;28;20028;-37
2021/04/04 11:18:15;;;;;;;11.75;4.40;;;7.40;64.40;;;;;;5114587;28;20035;-36
2021/04/04 11:20:42;;;;;;;8.82;3.45;;;7.60;63.90;;;;;;5114504;28;20024;-36
2021/04/04 11:23:10;;;;;;;7.03;2.55;;;7.30;64.60;;;;;;5114340;28;20027;-37
2021/04/04 11:25:36;;;;;;;7.57;3.35;;;7.30;65.10;;;;;;5115116;28;20028;-36
2021/04/04 11:28:16;;;;;;;10.77;4.55;;;7.30;65.00;;;;;;5114163;28;20039;-36
2021/04/04 11:30:43;;;;;;;9.15;3.60;;;7.70;63.90;;;;;;5114361;28;20047;-44
2021/04/04 11:33:20;;;;;;;13.32;5.35;;;7.60;64.00;;;;;;5096015;28;20081;-37
2021/04/04 11:36:06;;;;;;;8.07;4.30;;;7.70;63.70;;;;;;5113182;28;20082;-37
2021/04/04 11:38:53;;;;;;;9.15;4.03;;;7.80;63.50;;;;;;5114744;28;20069;-37
2021/04/04 11:41:21;;;;;;;8.80;3.55;;;7.80;63.00;;;;;;5106705;27;20039;-37
2021/04/04 11:43:50;;;;;;;7.53;3.00;;;7.70;63.30;;;;;;5114328;28;20111;-36
2021/04/04 11:46:44;;;;;;;8.63;3.97;;;7.50;63.50;;;;;;5114292;28;20081;-37
2021/04/04 11:49:28;;;;;;;5.25;3.75;;;7.30;64.20;;;;;;5113601;28;20044;-38
2021/04/04 11:51:55;;;;;;;9.38;4.15;;;7.70;63.50;;;;;;5114204;28;20050;-37
2021/04/04 11:54:42;;;;;;;11.18;3.97;;;7.80;61.90;;;;;;5113985;28;20024;-36
2021/04/04 11:57:08;;;;;;;9.85;4.22;;;7.40;63.10;;;;;;5114374;28;20031;-37
2021/04/04 11:59:34;;;;;;;5.65;3.65;;;7.80;62.20;;;;;;5112544;28;20137;-37
2021/04/04 12:02:01;;;;;;;5.32;4.03;;;8.20;60.30;;;;;;5113757;28;20023;-37
2021/04/04 12:04:35;;;;;;;10.80;3.85;;;8.30;59.00;;;;;;5113794;28;20031;-37
2021/04/04 12:07:11;;;;;;;7.20;4.13;;;7.90;60.50;;;;;;5113964;28;20026;-37
2021/04/04 12:09:38;;;;;;;7.88;4.85;;;8.30;59.10;;;;;;5113880;28;20042;-37
2021/04/04 12:12:05;;;;;;;9.77;4.10;;;7.80;60.20;;;;;;5113815;28;20047;-37
2021/04/04 12:14:32;;;;;;;11.10;4.10;;;7.60;61.00;;;;;;5113344;28;20024;-37
2021/04/04 12:16:57;;;;;;;10.32;4.13;;;7.20;62.90;;;;;;5113534;28;20023;-37
2021/04/04 12:19:27;;;;;;;8.50;4.63;;;7.40;62.10;;;;;;5113688;28;20472;-36
2021/04/04 12:21:54;;;;;;;10.32;4.70;;;7.70;61.20;;;;;;5113562;28;20030;-36
2021/04/04 12:24:20;;;;;;;13.27;7.32;;;8.20;59.90;;;;;;5111505;28;20024;-37
2021/04/04 12:26:46;;;;;;;10.30;4.95;;;8.60;58.20;;;;;;5112148;28;20539;-37
2021/04/04 12:29:11;;;;;;;13.57;5.70;;;8.80;57.80;;;;;;5112403;28;20028;-37
2021/04/04 12:31:41;;;;;;;14.82;6.45;;;8.80;57.00;;;;;;5113841;28;20498;-37
2021/04/04 12:34:07;;;;;;;9.57;6.43;;;8.30;58.60;;;;;;5113464;28;20038;-37
2021/04/04 12:36:46;;;;;;;8.15;4.82;;;8.60;57.90;;;;;;5113249;28;20273;-37
2021/04/04 12:39:16;;;;;;;11.65;4.32;;;8.30;58.90;;;;;;5113562;28;20024;-37
2021/04/04 12:41:42;;;;;;;9.27;3.67;;;8.50;58.40;;;;;;5113358;28;20164;-38
2021/04/04 12:44:08;;;;;;;8.13;3.70;;;8.40;58.40;;;;;;5113399;28;20077;-37
2021/04/04 12:46:34;;;;;;;5.07;2.95;;;8.60;58.40;;;;;;5113171;28;20118;-36
2021/04/04 12:48:59;;;;;;;10.30;3.72;;;8.00;59.70;;;;;;5113098;28;20121;-36
2021/04/04 12:51:26;;;;;;;8.18;4.25;;;7.80;60.90;;;;;;5113053;28;20028;-36
2021/04/04 12:53:52;;;;;;;8.55;3.72;;;8.00;60.50;;;;;;5113201;28;20110;-36
2021/04/04 12:56:37;;;;;;;6.93;2.83;;;8.00;60.30;;;;;;5113458;28;20040;-36
2021/04/04 12:59:04;;;;;;;6.45;3.40;;;7.90;60.00;;;;;;5114176;28;20084;-37
2021/04/04 13:01:30;;;;;;;5.15;2.75;;;7.90;60.20;;;;;;5113613;28;20028;-37
2021/04/04 13:03:56;;;;;;;8.05;3.05;;;8.40;58.90;;;;;;5113429;28;20023;-36
2021/04/04 13:06:22;;;;;;;10.77;3.05;;;8.70;58.00;;;;;;5113326;28;20031;-36
2021/04/04 13:08:48;;;;;;;5.97;2.65;;;8.60;57.90;;;;;;5114280;28;20114;-36
2021/04/04 13:11:16;;;;;;;11.73;2.97;;;8.80;57.50;;;;;;5113577;28;20046;-37
2021/04/04 13:13:43;;;;;;;11.00;3.38;;;8.60;57.20;;;;;;5113856;28;20391;-36
2021/04/04 13:16:14;;;;;;;4.88;2.50;;;8.30;58.50;;;;;;5113990;28;20095;-36